createdAt,value
2022-08-22T07:11:20.356Z,52.14
2022-08-22T07:12:20.766Z,52.24
2022-08-22T07:13:20.630Z,51.39
2022-08-22T07:14:20.730Z,50.36
2022-08-22T07:15:22.207Z,49.25
2022-08-22T07:16:23.888Z,49.17
2022-08-22T07:17:22.012Z,49.31
2022-08-22T07:18:23.363Z,48.57
2022-08-22T07:19:23.610Z,48.59
2022-08-22T07:20:24.075Z,48.23
2022-08-22T07:21:23.468Z,47.98
2022-08-22T07:22:23.285Z,47.38
2022-08-22T07:23:25.150Z,47.56
2022-08-22T07:24:25.274Z,47.08
2022-08-22T07:25:25.200Z,46.10
2022-08-22T07:26:26.007Z,45.73
2022-08-22T07:26:36.095Z,44.89
2022-08-22T07:27:39.574Z,44.73
2022-08-22T07:28:51.511Z,45.69
2022-08-22T07:29:38.152Z,45.82
2022-08-22T07:30:39.993Z,46.10
2022-08-22T07:31:39.196Z,45.66
2022-08-22T07:32:40.797Z,45.44
2022-08-22T07:33:40.665Z,45.68
2022-08-22T07:35:20.332Z,45.41
2022-08-22T07:37:19.290Z,46.24
2022-08-22T07:38:12.881Z,46.22
2022-08-22T07:39:13.161Z,45.38
2022-08-22T07:40:17.192Z,45.81
2022-08-22T07:41:19.541Z,46.33
2022-08-22T07:44:00.277Z,46.12
2022-08-22T07:49:09.666Z,46.36
2022-08-22T07:50:03.293Z,46.31
2022-08-22T07:51:05.168Z,46.43
2022-08-22T07:52:05.351Z,46.37
2022-08-22T07:53:50.141Z,46.72
2022-08-22T07:54:50.011Z,46.70
2022-08-22T07:55:59.699Z,46.94
2022-08-22T07:57:32.062Z,47.01
2022-08-22T07:58:31.687Z,46.96
2022-08-22T08:00:42.073Z,47.39
2022-08-22T08:03:01.624Z,47.87
2022-08-22T08:04:02.059Z,47.73
2022-08-22T08:05:01.028Z,47.50
2022-08-22T08:06:01.788Z,47.68
2022-08-22T08:07:36.582Z,47.65
2022-08-22T08:08:34.313Z,47.60
2022-08-22T08:09:36.191Z,47.89
2022-08-22T08:10:36.911Z,48.50
2022-08-22T08:13:16.021Z,49.62
2022-08-22T08:14:56.280Z,50.06
2022-08-22T08:16:01.558Z,50.02
2022-08-22T08:16:58.444Z,50.76
2022-08-22T08:17:59.437Z,51.31
2022-08-22T08:18:59.099Z,51.69
2022-08-22T08:19:59.645Z,51.36
2022-08-22T08:21:00.317Z,51.13
2022-08-22T08:22:02.125Z,51.80
2022-08-22T08:23:02.372Z,52.45
2022-08-22T08:24:02.151Z,52.47
2022-08-22T08:25:03.005Z,52.92
2022-08-22T08:26:04.021Z,53.91
2022-08-22T08:27:04.404Z,53.79
2022-08-22T08:28:06.238Z,53.85
2022-08-22T08:29:46.189Z,53.94
2022-08-22T08:31:35.833Z,54.17
2022-08-22T08:33:24.325Z,54.19
2022-08-22T08:33:58.861Z,54.27
2022-08-22T08:34:59.688Z,54.05
2022-08-22T08:36:03.545Z,54.61
2022-08-22T08:37:01.093Z,54.51
2022-08-22T08:38:01.859Z,54.17
2022-08-22T08:39:03.765Z,53.80
2022-08-22T08:40:06.338Z,54.04
2022-08-22T08:41:10.589Z,54.40
2022-08-22T08:42:05.777Z,54.68
2022-08-22T08:43:05.741Z,54.38
2022-08-22T08:44:05.820Z,54.17
2022-08-22T08:45:07.721Z,54.71
2022-08-22T08:46:07.959Z,53.71
2022-08-22T08:47:10.677Z,53.84
2022-08-22T08:47:26.699Z,53.52
2022-08-22T08:48:26.047Z,53.59
2022-08-22T08:49:26.548Z,54.35
2022-08-22T08:50:48.774Z,53.92
2022-08-22T08:51:49.040Z,53.85
2022-08-22T08:52:52.843Z,53.32
2022-08-22T08:53:50.515Z,52.81
2022-08-22T08:55:25.191Z,52.45
2022-08-22T08:56:26.202Z,52.58
2022-08-22T08:57:27.643Z,52.10
2022-08-22T08:58:26.815Z,52.77
2022-08-22T08:59:29.184Z,53.01
2022-08-22T09:00:30.290Z,52.44
2022-08-22T09:01:35.418Z,53.49
2022-08-22T09:02:34.774Z,53.20
2022-08-22T09:03:31.143Z,53.63
2022-08-22T09:04:29.276Z,53.24
2022-08-22T09:05:30.140Z,53.27
2022-08-22T09:06:30.262Z,54.13
2022-08-22T09:07:31.612Z,53.43
2022-08-22T09:08:30.768Z,52.94
2022-08-22T09:09:32.767Z,53.40
2022-08-22T09:10:35.161Z,53.33
2022-08-22T09:11:33.059Z,53.54
2022-08-22T09:12:33.190Z,53.82
2022-08-22T09:13:34.606Z,53.92
2022-08-22T09:13:49.308Z,53.38
2022-08-22T09:44:39.593Z,53.37
2022-08-22T09:45:37.517Z,51.88
2022-08-22T09:46:36.857Z,52.26
2022-08-22T09:47:43.267Z,52.18
2022-08-22T09:48:39.023Z,52.23
2022-08-22T09:50:10.987Z,50.70
2022-08-22T09:51:48.669Z,50.56
2022-08-22T09:52:43.030Z,50.59
2022-08-22T09:53:43.848Z,50.16
2022-08-22T09:54:44.507Z,49.92
2022-08-22T09:55:44.727Z,50.73
2022-08-22T09:56:45.612Z,50.86
2022-08-22T09:57:46.279Z,50.72
2022-08-22T09:58:46.911Z,49.08
2022-08-22T10:00:55.185Z,49.97
2022-08-22T10:01:48.350Z,49.95
2022-08-22T10:02:52.163Z,50.09
2022-08-22T10:03:50.195Z,49.36
2022-08-22T10:05:40.836Z,49.10
2022-08-22T10:06:22.896Z,49.22
2022-08-22T10:07:26.603Z,48.83
2022-08-22T10:08:26.321Z,49.31
2022-08-22T10:09:31.957Z,48.58
2022-08-22T10:10:26.250Z,48.68
2022-08-22T10:11:25.076Z,48.30
2022-08-22T10:12:25.970Z,48.45
2022-08-22T10:13:26.637Z,47.41
2022-08-22T10:14:27.597Z,47.06
2022-08-22T10:15:28.481Z,47.44
2022-08-22T10:16:28.647Z,47.25
2022-08-22T10:17:28.704Z,46.89
2022-08-22T10:18:29.582Z,46.89
2022-08-22T10:57:53.255Z,45.85
2022-08-22T11:01:38.368Z,46.72
2022-08-22T11:02:16.729Z,46.56
2022-08-22T11:03:23.423Z,47.53
2022-08-22T11:04:21.033Z,47.63
2022-08-22T11:09:08.688Z,48.93
2022-08-22T11:10:07.623Z,48.85
2022-08-22T11:11:07.296Z,48.88
2022-08-22T11:12:11.047Z,47.78
2022-08-22T11:13:09.258Z,46.50
2022-08-22T11:14:44.941Z,47.18
2022-08-22T11:15:46.113Z,47.32
2022-08-22T11:16:55.288Z,46.46
2022-08-22T11:17:46.401Z,47.22
2022-08-22T11:18:58.084Z,46.92
2022-08-22T11:19:47.100Z,46.48
2022-08-22T11:20:49.046Z,46.27
2022-08-22T11:21:48.821Z,46.71
2022-08-22T11:22:49.353Z,46.32
2022-08-22T11:23:51.250Z,46.23
2022-08-22T11:24:56.379Z,44.67
2022-08-22T11:25:53.807Z,44.64
2022-08-22T11:27:25.274Z,44.25
2022-08-22T11:28:22.407Z,44.21
2022-08-22T11:31:47.194Z,44.43
2022-08-22T11:32:44.655Z,44.49
2022-08-22T11:34:16.763Z,44.00
2022-08-22T11:38:19.323Z,44.24
2022-08-22T11:39:18.252Z,44.23
2022-08-22T11:40:17.139Z,42.70
2022-08-22T11:41:24.189Z,42.71
2022-08-22T11:47:16.229Z,43.56
2022-08-22T11:48:13.358Z,43.42
2022-08-22T11:53:38.609Z,43.94
2022-08-22T12:00:17.586Z,44.89
2022-08-22T12:06:21.267Z,43.52
2022-08-22T12:08:03.681Z,42.99
2022-08-22T12:08:58.886Z,42.96
2022-08-22T12:10:00.309Z,42.85
2022-08-22T12:10:58.537Z,42.66
2022-08-22T12:11:59.751Z,43.29
2022-08-22T12:13:00.838Z,42.77
2022-08-22T12:14:03.875Z,43.64
2022-08-22T12:15:01.009Z,43.56
2022-08-22T12:16:01.739Z,43.26
2022-08-22T12:17:01.871Z,44.52
2022-08-22T12:18:02.512Z,43.58
2022-08-22T12:19:03.392Z,43.29
2022-08-22T12:20:18.626Z,43.59
2022-08-22T12:21:04.197Z,43.49
2022-08-22T12:22:04.877Z,43.98
2022-08-22T12:23:05.972Z,43.82
2022-08-22T12:24:11.090Z,43.98
2022-08-22T12:25:11.521Z,43.93
2022-08-22T12:29:46.512Z,45.64
2022-08-22T12:30:46.999Z,45.51
2022-08-22T12:31:49.621Z,45.50
2022-08-22T12:33:39.396Z,44.73
2022-08-22T12:34:36.159Z,44.96
2022-08-22T12:35:36.139Z,44.01
2022-08-22T12:37:31.863Z,43.67
2022-08-22T12:38:29.331Z,43.78
2022-08-22T12:39:23.330Z,42.33
2022-08-22T12:40:26.314Z,42.77
2022-08-22T12:41:28.312Z,42.93
2022-08-22T12:42:25.419Z,43.06
2022-08-22T12:43:26.822Z,43.00
2022-08-22T12:44:27.030Z,42.24
2022-08-22T12:45:27.857Z,42.13
2022-08-22T12:46:28.844Z,43.31
2022-08-22T12:47:27.799Z,43.42
2022-08-22T12:48:29.412Z,43.16
2022-08-22T12:49:29.183Z,43.80
2022-08-22T12:50:31.529Z,43.99
2022-08-22T12:51:30.726Z,43.58
2022-08-22T12:52:31.286Z,43.89
2022-08-22T12:54:00.023Z,44.76
2022-08-22T12:55:32.093Z,44.73
2022-08-22T12:57:03.257Z,44.96
2022-08-22T12:58:03.441Z,44.99
2022-08-22T12:59:04.221Z,44.87
2022-08-22T13:00:05.079Z,43.88
2022-08-22T13:01:06.666Z,44.48
2022-08-22T13:02:06.369Z,43.61
2022-08-22T13:03:07.535Z,43.75
2022-08-22T13:04:08.815Z,44.21
2022-08-22T13:05:07.647Z,45.52
2022-08-22T13:06:07.905Z,45.25
2022-08-22T13:07:08.710Z,45.53
2022-08-22T13:08:10.212Z,45.25
2022-08-22T13:09:10.348Z,44.67
2022-08-22T13:10:10.998Z,44.31
2022-08-22T13:11:22.762Z,43.88
2022-08-22T13:12:11.637Z,44.03
2022-08-22T13:13:12.784Z,44.04
2022-08-22T13:14:19.609Z,44.85
2022-08-22T13:15:12.754Z,44.56
2022-08-22T13:16:13.388Z,44.70
2022-08-22T13:17:24.486Z,44.05
2022-08-22T13:18:30.766Z,44.88
2022-08-22T13:19:15.091Z,45.02
2022-08-22T13:20:16.176Z,45.38
2022-08-22T13:20:29.943Z,43.73
2022-08-22T13:21:31.914Z,43.55
2022-08-22T13:22:30.772Z,43.41
2022-08-22T13:23:30.354Z,44.37
2022-08-22T13:24:38.649Z,44.27
2022-08-22T13:25:36.791Z,44.94
2022-08-22T13:27:03.087Z,44.60
2022-08-22T13:28:05.595Z,44.49
2022-08-22T13:29:24.668Z,43.84
2022-08-22T13:30:04.215Z,44.23
2022-08-22T13:31:05.097Z,44.83
2022-08-22T13:32:05.097Z,44.73
2022-08-22T13:33:05.474Z,45.56
2022-08-22T13:34:06.293Z,44.60
2022-08-22T13:35:07.288Z,45.93
2022-08-22T13:36:08.068Z,44.61
2022-08-22T13:37:10.183Z,43.18
2022-08-22T13:38:12.262Z,44.22
2022-08-22T13:39:10.382Z,44.40
2022-08-22T13:40:11.277Z,43.61
2022-08-22T13:41:11.551Z,42.91
2022-08-22T13:42:14.527Z,43.70
2022-08-22T13:43:12.543Z,43.51
2022-08-22T13:44:13.369Z,44.28
2022-08-22T13:45:13.567Z,44.39
2022-08-22T13:46:14.566Z,45.16
2022-08-22T13:47:15.003Z,44.26
2022-08-22T13:47:23.521Z,43.20
2022-08-22T13:48:23.566Z,43.23
2022-08-22T13:49:24.560Z,43.87
2022-08-22T13:50:25.346Z,43.21
2022-08-22T13:51:25.941Z,44.62
2022-08-22T13:52:59.067Z,44.86
2022-08-22T13:54:00.858Z,44.86
2022-08-22T13:55:31.230Z,45.36
2022-08-22T13:56:31.754Z,45.27
2022-08-22T13:57:32.670Z,45.53
2022-08-22T13:58:33.398Z,44.56
2022-08-22T13:59:50.209Z,43.74
2022-08-22T14:00:34.398Z,44.26
2022-08-22T14:01:35.404Z,44.51
2022-08-22T14:02:36.071Z,44.69
2022-08-22T14:03:36.896Z,43.46
2022-08-22T14:04:38.510Z,43.88
2022-08-22T14:05:37.677Z,45.00
2022-08-22T14:06:41.477Z,44.46
2022-08-22T14:07:38.597Z,43.36
2022-08-22T14:08:39.539Z,43.83
2022-08-22T14:09:40.182Z,43.18
2022-08-22T14:10:40.837Z,43.03
2022-08-22T14:11:42.833Z,43.49
2022-08-22T14:12:50.516Z,43.80
2022-08-22T14:13:43.109Z,44.22
2022-08-22T14:14:43.422Z,44.41
2022-08-22T14:15:45.406Z,44.13
2022-08-22T14:16:43.924Z,43.39
2022-08-22T14:17:48.298Z,43.25
2022-08-22T14:18:46.163Z,44.49
2022-08-22T14:19:58.726Z,44.62
2022-08-22T14:20:46.014Z,44.59
2022-08-22T14:21:46.509Z,44.02
2022-08-22T14:22:47.871Z,43.74
2022-08-22T14:23:00.969Z,42.66
2022-08-22T14:23:57.273Z,42.69
2022-08-22T14:24:58.179Z,43.38
2022-08-22T14:25:58.769Z,42.76
2022-08-22T14:27:05.204Z,43.13
2022-08-22T14:28:01.093Z,43.13
2022-08-22T14:29:00.617Z,43.27
2022-08-22T14:30:02.937Z,43.96
2022-08-22T14:31:01.284Z,44.02
2022-08-22T14:32:01.530Z,43.71
2022-08-22T14:33:02.413Z,43.02
2022-08-22T14:34:03.098Z,43.21
2022-08-22T14:35:04.751Z,42.11
2022-08-22T14:36:04.433Z,41.72
2022-08-22T14:37:07.370Z,41.64
2022-08-22T14:38:06.219Z,41.61
2022-08-22T14:39:07.054Z,41.96
2022-08-22T14:40:07.256Z,42.22
2022-08-22T14:41:17.254Z,42.18
2022-08-22T14:42:10.835Z,42.70
2022-08-22T14:43:08.640Z,44.03
2022-08-22T14:44:09.578Z,42.84
2022-08-22T14:45:10.371Z,42.25
2022-08-22T14:46:11.034Z,42.35
2022-08-22T14:47:54.552Z,42.89
2022-08-22T14:48:29.731Z,42.67
2022-08-22T14:49:13.058Z,42.63
2022-08-22T14:50:13.884Z,42.59
2022-08-22T14:50:26.739Z,43.65
2022-08-22T14:51:59.275Z,43.44
2022-08-22T14:53:39.989Z,42.54
2022-08-22T14:54:42.687Z,42.57
2022-08-22T14:55:41.379Z,43.00
2022-08-22T14:56:48.343Z,43.82
2022-08-22T14:57:42.518Z,43.30
2022-08-22T14:58:42.731Z,42.64
2022-08-22T14:59:43.574Z,42.49
2022-08-22T15:01:08.313Z,43.33
2022-08-22T15:02:09.294Z,42.94
2022-08-22T15:03:10.012Z,42.40
2022-08-22T15:04:10.537Z,42.36
2022-08-22T15:05:11.924Z,42.65
2022-08-22T15:06:11.185Z,42.01
2022-08-22T15:07:12.005Z,41.23
2022-08-22T15:07:20.655Z,41.16
2022-08-22T15:08:20.847Z,41.14
2022-08-22T15:09:21.735Z,41.10
2022-08-22T15:10:22.096Z,41.32
2022-08-22T15:11:23.602Z,41.66
2022-08-22T15:12:22.770Z,41.79
2022-08-22T15:13:25.182Z,43.00
2022-08-22T15:14:23.946Z,42.74
2022-08-22T15:15:24.775Z,42.36
2022-08-22T15:16:25.032Z,42.31
2022-08-22T15:17:27.246Z,42.44
2022-08-22T15:18:26.991Z,43.06
2022-08-22T15:19:27.268Z,43.15
2022-08-22T15:20:28.176Z,43.22
2022-08-22T15:21:27.298Z,44.44
2022-08-22T15:22:28.212Z,42.95
2022-08-22T15:23:29.022Z,42.50
2022-08-22T15:23:45.246Z,43.04
2022-08-22T15:25:26.541Z,42.97
2022-08-22T15:26:41.043Z,42.69
2022-08-22T15:27:41.331Z,43.15
2022-08-22T15:28:53.107Z,43.58
2022-08-22T15:29:41.558Z,44.18
2022-08-22T15:30:44.337Z,43.10
2022-08-22T15:31:46.638Z,42.37
2022-08-22T15:32:43.445Z,42.68
2022-08-22T15:33:45.466Z,42.26
2022-08-22T15:34:44.032Z,42.16
2022-08-22T15:35:45.631Z,42.32
2022-08-22T15:36:45.387Z,42.59
2022-08-22T15:37:47.246Z,42.21
2022-08-22T15:38:48.167Z,42.84
2022-08-22T15:39:47.178Z,43.40
2022-08-22T15:40:47.257Z,44.29
2022-08-22T15:41:48.694Z,45.09
2022-08-22T15:42:48.179Z,45.48
2022-08-22T15:43:49.190Z,45.14
2022-08-22T15:44:50.074Z,44.75
2022-08-22T15:45:49.462Z,44.67
2022-08-22T15:46:50.293Z,44.53
2022-08-22T15:47:52.761Z,43.89
2022-08-22T15:48:52.470Z,44.43
2022-08-22T15:49:50.627Z,45.26
2022-08-22T15:51:24.955Z,43.31
2022-08-22T15:52:25.968Z,43.18
2022-08-22T15:53:26.606Z,42.88
2022-08-22T15:54:27.328Z,42.97
2022-08-22T15:55:27.403Z,42.85
2022-08-22T15:56:28.535Z,44.00
2022-08-22T15:57:29.587Z,43.87
2022-08-22T15:58:28.842Z,44.20
2022-08-22T15:59:29.690Z,44.37
2022-08-22T16:00:30.157Z,45.17
2022-08-22T16:01:30.685Z,45.28
2022-08-22T16:02:31.534Z,45.17
2022-08-22T16:03:32.505Z,43.43
2022-08-22T16:04:33.028Z,44.08
2022-08-22T16:05:32.419Z,45.10
2022-08-22T16:06:32.892Z,46.41
2022-08-22T16:07:33.042Z,46.81
2022-08-22T16:08:33.926Z,46.09
2022-08-22T16:09:34.980Z,46.71
2022-08-22T16:10:34.927Z,46.06
2022-08-22T16:11:35.084Z,45.73
2022-08-22T16:12:36.906Z,45.68
2022-08-22T16:12:59.843Z,46.92
2022-08-22T16:14:00.483Z,46.92
2022-08-22T16:15:00.804Z,47.56
2022-08-22T16:16:01.799Z,46.85
2022-08-22T16:17:02.595Z,46.63
2022-08-22T16:18:03.778Z,46.45
2022-08-22T16:19:02.939Z,46.67
2022-08-22T16:20:04.371Z,46.86
2022-08-22T16:21:04.529Z,47.55
2022-08-22T16:22:04.827Z,47.34
2022-08-22T16:23:04.943Z,47.06
2022-08-22T16:24:05.773Z,47.29
2022-08-22T16:25:06.459Z,47.32
2022-08-22T16:26:05.957Z,47.38
2022-08-22T16:27:06.997Z,47.16
2022-08-22T16:27:15.625Z,46.81
2022-08-22T16:28:16.081Z,46.89
2022-08-22T16:29:18.263Z,47.12
2022-08-22T16:30:16.899Z,47.31
2022-08-22T16:31:18.108Z,47.01
2022-08-22T16:32:18.022Z,46.73
2022-08-22T16:33:18.726Z,46.99
2022-08-22T16:34:18.911Z,46.97
2022-08-22T16:35:19.576Z,47.14
2022-08-22T16:36:19.656Z,47.26
2022-08-22T16:37:21.509Z,47.38
2022-08-22T16:38:21.322Z,47.38
2022-08-22T16:39:23.467Z,47.77
2022-08-22T16:40:26.504Z,47.91
2022-08-22T16:41:31.162Z,48.48
2022-08-22T16:42:23.440Z,48.55
2022-08-22T16:43:24.656Z,48.54
2022-08-22T16:44:25.023Z,48.83
2022-08-22T16:45:24.510Z,48.73
2022-08-22T16:46:25.194Z,48.52
2022-08-22T16:47:25.414Z,48.52
2022-08-22T16:48:26.214Z,48.57
2022-08-22T16:49:26.157Z,48.44
2022-08-22T16:50:27.008Z,48.53
2022-08-22T16:51:28.549Z,49.06
2022-08-22T16:52:27.731Z,49.44
2022-08-22T16:53:28.057Z,49.23
2022-08-22T16:54:28.117Z,49.51
2022-08-22T16:55:28.980Z,50.20
2022-08-22T16:55:39.203Z,49.88
2022-08-22T16:56:40.020Z,49.98
2022-08-22T16:57:50.569Z,49.09
2022-08-22T16:58:56.876Z,49.46
2022-08-22T16:59:41.459Z,49.72
2022-08-22T17:00:41.555Z,49.57
2022-08-22T17:01:42.263Z,49.53
2022-08-22T17:02:42.305Z,49.50
2022-08-22T17:03:42.590Z,49.97
2022-08-22T17:04:42.802Z,49.63
2022-08-22T17:05:43.758Z,49.31
2022-08-22T17:06:45.662Z,49.23
2022-08-22T17:07:46.480Z,49.16
2022-08-22T17:08:45.931Z,49.20
2022-08-22T17:09:47.471Z,49.52
2022-08-22T17:10:46.981Z,49.56
2022-08-22T17:11:47.723Z,49.12
2022-08-22T17:12:48.995Z,48.75
2022-08-22T17:13:49.824Z,49.07
2022-08-22T17:14:52.622Z,49.02
2022-08-22T17:15:50.013Z,48.98
2022-08-22T17:16:54.072Z,48.71
2022-08-22T17:17:50.807Z,49.08
2022-08-22T17:18:52.525Z,48.63
2022-08-22T17:19:12.246Z,48.32
2022-08-22T17:20:07.815Z,48.37
2022-08-22T17:21:08.005Z,49.65
2022-08-22T17:22:42.141Z,49.67
2022-08-22T17:23:42.113Z,49.67
2022-08-22T17:24:45.719Z,49.32
2022-08-22T17:25:43.643Z,49.54
2022-08-22T17:26:43.662Z,49.31
2022-08-22T17:27:45.672Z,49.27
2022-08-22T17:28:45.062Z,48.69
2022-08-22T17:29:45.760Z,49.00
2022-08-22T17:30:46.381Z,48.98
2022-08-22T17:31:47.232Z,48.66
2022-08-22T17:32:51.348Z,48.75
2022-08-22T17:33:51.623Z,48.73
2022-08-22T17:34:48.888Z,49.10
2022-08-22T17:35:48.961Z,49.09
2022-08-22T17:36:49.724Z,49.09
2022-08-22T17:37:49.779Z,49.22
2022-08-22T17:38:49.942Z,49.53
2022-08-22T17:39:54.396Z,49.67
2022-08-22T17:40:01.256Z,49.93
2022-08-22T17:41:00.142Z,49.77
2022-08-22T17:42:00.948Z,49.97
2022-08-22T17:43:00.988Z,50.24
2022-08-22T17:44:02.028Z,50.32
2022-08-22T17:45:01.017Z,50.28
2022-08-22T17:46:38.545Z,50.06
2022-08-22T17:47:38.346Z,50.08
2022-08-22T17:48:38.476Z,49.88
2022-08-22T17:49:39.311Z,49.85
2022-08-22T17:50:39.813Z,50.34
2022-08-22T17:51:40.377Z,50.36
2022-08-22T17:52:41.213Z,50.19
2022-08-22T17:53:42.090Z,50.79
2022-08-22T17:55:04.743Z,49.82
2022-08-22T17:56:04.935Z,49.82
2022-08-22T17:57:06.484Z,50.41
2022-08-22T17:58:06.610Z,50.07
2022-08-22T17:59:06.073Z,50.32
2022-08-22T18:00:06.739Z,50.15
2022-08-22T18:01:06.905Z,50.18
2022-08-22T18:02:07.393Z,50.36
2022-08-22T18:03:08.027Z,50.27
2022-08-22T18:04:08.928Z,50.14
2022-08-22T18:05:09.764Z,49.80
2022-08-22T18:06:09.849Z,49.90
2022-08-22T18:07:10.015Z,50.55
2022-08-22T18:08:37.394Z,50.54
2022-08-22T18:09:14.641Z,50.74
2022-08-22T18:10:11.810Z,51.25
2022-08-22T18:11:13.760Z,51.94
2022-08-22T18:12:14.348Z,52.57
2022-08-22T18:13:15.180Z,51.37
2022-08-22T18:14:14.649Z,50.90
2022-08-22T18:15:15.066Z,50.63
2022-08-22T18:15:25.819Z,50.80
2022-08-22T18:16:27.051Z,50.79
2022-08-22T18:17:26.685Z,50.81
2022-08-22T18:18:30.348Z,50.20
2022-08-22T18:19:27.545Z,50.68
2022-08-22T18:20:28.109Z,50.74
2022-08-22T18:21:28.516Z,51.28
2022-08-22T18:22:28.605Z,51.41
2022-08-22T18:23:36.190Z,51.20
2022-08-22T18:24:33.010Z,51.00
2022-08-22T18:25:29.926Z,50.48
2022-08-22T18:26:30.512Z,49.93
2022-08-22T18:27:35.328Z,50.41
2022-08-22T18:28:31.442Z,50.36
2022-08-22T18:29:32.088Z,50.34
2022-08-22T18:30:34.028Z,50.86
2022-08-22T18:31:37.723Z,50.78
2022-08-22T18:32:34.217Z,51.15
2022-08-22T18:33:34.800Z,51.35
2022-08-22T18:34:41.008Z,51.68
2022-08-22T18:35:35.527Z,52.37
2022-08-22T18:35:54.474Z,53.29
2022-08-22T18:36:51.853Z,53.35
2022-08-22T18:37:50.868Z,53.01
2022-08-22T18:38:51.933Z,52.40
2022-08-22T18:39:51.257Z,52.00
2022-08-22T18:40:51.224Z,51.90
2022-08-22T18:42:31.995Z,51.08
2022-08-22T18:43:32.117Z,51.09
2022-08-22T18:44:30.833Z,50.92
2022-08-22T18:45:43.706Z,50.88
2022-08-22T18:46:29.957Z,50.86
2022-08-22T18:47:31.480Z,50.97
2022-08-22T18:48:31.507Z,51.86
2022-08-22T18:49:32.410Z,51.29
2022-08-22T18:50:32.168Z,51.15
2022-08-22T18:51:33.193Z,51.63
2022-08-22T18:52:33.704Z,51.40
2022-08-22T18:53:34.269Z,51.28
2022-08-22T18:54:35.112Z,51.34
2022-08-22T18:55:35.548Z,52.21
2022-08-22T18:56:37.554Z,52.40
2022-08-22T18:57:38.791Z,52.24
2022-08-22T18:58:37.988Z,51.93
2022-08-22T18:59:38.643Z,52.15
2022-08-22T19:00:38.734Z,52.55
2022-08-22T19:01:44.683Z,52.67
2022-08-22T19:02:40.962Z,52.92
2022-08-22T19:03:40.245Z,53.47
2022-08-22T19:04:40.718Z,55.52
2022-08-22T19:05:42.660Z,53.65
2022-08-22T19:06:41.749Z,52.36
2022-08-22T19:07:42.579Z,52.76
2022-08-22T19:07:57.485Z,52.28
2022-08-22T19:08:55.386Z,52.31
2022-08-22T19:09:55.662Z,52.34
2022-08-22T19:10:57.171Z,52.28
2022-08-22T19:11:57.620Z,52.71
2022-08-22T19:12:57.630Z,52.38
2022-08-22T19:13:58.022Z,52.34
2022-08-22T19:14:58.149Z,52.44
2022-08-22T19:15:59.028Z,52.14
2022-08-22T19:16:59.542Z,52.47
2022-08-22T19:18:02.384Z,52.46
2022-08-22T19:19:00.584Z,52.70
2022-08-22T19:20:01.348Z,51.97
2022-08-22T19:21:02.182Z,52.19
2022-08-22T19:22:02.459Z,52.48
2022-08-22T19:23:03.462Z,52.85
2022-08-22T19:24:03.845Z,53.04
2022-08-22T19:24:26.795Z,53.27
2022-08-22T19:25:28.510Z,53.26
2022-08-22T19:26:28.033Z,52.89
2022-08-22T19:27:30.923Z,52.58
2022-08-22T19:28:29.064Z,52.40
2022-08-22T19:29:29.588Z,52.78
2022-08-22T19:30:29.624Z,52.66
2022-08-22T19:31:30.925Z,52.95
2022-08-22T19:32:32.933Z,52.98
2022-08-22T19:33:34.968Z,52.66
2022-08-22T19:34:32.176Z,52.88
2022-08-22T19:35:32.563Z,53.40
2022-08-22T19:36:33.278Z,52.83
2022-08-22T19:37:34.426Z,52.92
2022-08-22T19:38:34.406Z,53.30
2022-08-22T19:39:34.916Z,53.87
2022-08-22T19:41:18.951Z,53.40
2022-08-22T19:42:54.122Z,53.30
2022-08-22T19:43:51.939Z,53.29
2022-08-22T19:44:53.604Z,53.37
2022-08-22T19:45:54.216Z,53.48
2022-08-22T19:46:54.899Z,53.55
2022-08-22T19:47:54.861Z,53.65
2022-08-22T19:48:54.876Z,54.00
2022-08-22T19:49:54.909Z,54.36
2022-08-22T19:50:55.228Z,56.21
2022-08-22T19:51:55.987Z,60.00
2022-08-22T19:52:56.107Z,58.79
2022-08-22T19:53:56.152Z,55.87
2022-08-22T19:54:56.335Z,55.20
2022-08-22T19:55:58.923Z,55.43
2022-08-22T19:56:56.929Z,55.73
2022-08-22T19:57:58.489Z,55.65
2022-08-22T19:58:58.651Z,55.55
2022-08-22T19:59:57.843Z,54.95
2022-08-22T20:00:59.543Z,54.73
2022-08-22T20:01:08.759Z,55.05
2022-08-22T20:02:09.549Z,55.04
2022-08-22T20:03:10.429Z,55.08
2022-08-22T20:04:12.376Z,55.25
2022-08-22T20:06:43.126Z,55.18
2022-08-22T20:07:24.481Z,55.19
2022-08-22T20:08:25.820Z,55.23
2022-08-22T20:09:26.336Z,54.94
2022-08-22T20:10:26.764Z,55.18
2022-08-22T20:11:25.914Z,55.12
2022-08-22T20:12:27.533Z,55.10
2022-08-22T20:17:21.454Z,56.92
2022-08-22T20:19:23.093Z,56.47
2022-08-22T20:20:24.535Z,56.28
2022-08-22T20:21:25.203Z,55.99
2022-08-22T20:22:24.949Z,56.04
2022-08-22T20:23:25.203Z,56.20
2022-08-22T20:24:28.914Z,56.28
2022-08-22T20:25:42.916Z,56.08
2022-08-22T20:26:26.273Z,55.89
2022-08-22T20:27:26.377Z,56.37
2022-08-22T20:28:26.573Z,56.25
2022-08-22T20:29:27.794Z,56.54
2022-08-22T20:30:28.403Z,56.26
2022-08-22T20:31:27.707Z,56.16
2022-08-22T20:32:29.668Z,56.12
2022-08-22T20:33:30.316Z,56.24
2022-08-22T20:34:30.922Z,56.29
2022-08-22T20:35:30.116Z,56.47
2022-08-22T20:36:30.215Z,56.46
2022-08-22T20:38:02.790Z,56.49
2022-08-22T20:38:31.929Z,56.60
2022-08-22T20:39:32.734Z,56.81
2022-08-22T20:40:53.522Z,56.98
2022-08-22T20:40:55.605Z,57.07
2022-08-22T20:41:49.484Z,57.00
2022-08-22T20:42:49.911Z,57.24
2022-08-22T20:43:50.100Z,57.33
2022-08-22T20:44:53.438Z,57.79
2022-08-22T20:45:51.221Z,58.06
2022-08-22T20:46:53.343Z,57.97
2022-08-22T20:47:51.681Z,57.58
2022-08-22T20:48:53.121Z,57.55
2022-08-22T20:49:53.619Z,57.78
2022-08-22T20:50:53.635Z,58.15
2022-08-22T20:51:53.982Z,58.32
2022-08-22T20:52:54.623Z,58.28
2022-08-22T20:53:54.414Z,58.18
2022-08-22T20:54:56.390Z,57.97
2022-08-22T20:55:58.803Z,57.79
2022-08-22T20:56:56.438Z,57.72
2022-08-22T20:57:58.546Z,57.96
2022-08-22T20:59:01.006Z,58.25
2022-08-22T20:59:58.752Z,58.45
2022-08-22T21:01:00.407Z,58.78
2022-08-22T21:01:59.949Z,58.71
2022-08-22T21:03:01.763Z,58.56
2022-08-22T21:04:02.230Z,58.66
2022-08-22T21:05:01.432Z,59.61
2022-08-22T21:05:11.674Z,59.38
2022-08-22T21:06:11.629Z,59.36
2022-08-22T21:07:13.429Z,59.84
2022-08-22T21:08:13.848Z,60.09
2022-08-22T21:09:14.499Z,59.87
2022-08-22T21:10:17.825Z,60.03
2022-08-22T21:11:14.199Z,59.87
2022-08-22T21:12:15.644Z,61.25
2022-08-22T21:13:16.164Z,61.36
2022-08-22T21:14:15.944Z,60.62
2022-08-22T21:15:17.779Z,60.04
2022-08-22T21:16:18.362Z,59.56
2022-08-22T21:17:18.315Z,59.83
2022-08-22T21:18:20.116Z,60.39
2022-08-22T21:19:20.206Z,61.08
2022-08-22T21:20:19.380Z,60.39
2022-08-22T21:21:20.449Z,60.84
2022-08-22T21:22:21.022Z,61.38
2022-08-22T21:23:21.105Z,61.49
2022-08-22T21:24:20.234Z,61.37
2022-08-22T21:25:20.912Z,61.46
2022-08-22T21:26:21.771Z,61.20
2022-08-22T21:27:22.149Z,61.36
2022-08-22T21:28:22.196Z,61.62
2022-08-22T21:28:31.656Z,61.80
2022-08-22T21:29:33.951Z,61.81
2022-08-22T21:30:33.036Z,62.24
2022-08-22T21:31:34.495Z,62.67
2022-08-22T21:32:34.537Z,62.36
2022-08-22T21:33:34.123Z,62.34
2022-08-22T21:34:36.207Z,62.90
2022-08-22T21:35:35.774Z,63.00
2022-08-22T21:36:36.035Z,63.00
2022-08-22T21:37:37.091Z,62.94
2022-08-22T21:38:36.487Z,63.45
2022-08-22T21:39:37.172Z,63.90
2022-08-22T21:40:37.314Z,63.75
2022-08-22T21:41:39.449Z,63.83
2022-08-22T21:42:38.593Z,63.61
2022-08-22T21:43:39.680Z,63.10
2022-08-22T21:44:39.148Z,63.42
2022-08-22T21:45:41.001Z,63.29
2022-08-22T21:46:41.203Z,63.84
2022-08-22T21:47:40.702Z,63.55
2022-08-22T21:48:41.175Z,63.20
2022-08-22T21:49:41.424Z,63.42
2022-08-22T21:49:53.611Z,63.39
2022-08-22T21:50:54.020Z,63.35
2022-08-22T21:51:54.723Z,63.60
2022-08-22T21:52:56.369Z,64.00
2022-08-22T21:53:58.212Z,64.15
2022-08-22T21:54:56.201Z,63.67
2022-08-22T21:55:56.518Z,63.70
2022-08-22T21:56:58.296Z,64.29
2022-08-22T21:57:58.149Z,64.68
2022-08-22T21:58:58.891Z,64.67
2022-08-22T22:00:00.160Z,64.83
2022-08-22T22:00:59.969Z,65.67
2022-08-22T22:02:00.877Z,65.70
2022-08-22T22:03:02.924Z,65.99
2022-08-22T22:04:02.284Z,65.22
2022-08-22T22:05:03.236Z,66.26
2022-08-22T22:06:04.242Z,66.64
2022-08-22T22:07:03.533Z,66.81
2022-08-22T22:08:04.596Z,66.40
2022-08-22T22:09:03.869Z,65.85
2022-08-22T22:10:03.932Z,65.54
2022-08-22T22:11:06.195Z,67.08
2022-08-22T22:12:04.651Z,67.79
2022-08-22T22:13:05.003Z,66.81
2022-08-22T22:14:06.594Z,65.64